createdAt,value
2022-11-24T00:01:13.240Z,5.53
2022-11-24T00:03:40.796Z,7.32
2022-11-24T00:06:10.904Z,6.32
2022-11-24T00:08:40.076Z,5.70
2022-11-24T00:11:09.645Z,8.18
2022-11-24T00:13:39.062Z,5.32
2022-11-24T00:16:12.819Z,6.57
2022-11-24T00:18:41.657Z,5.07
2022-11-24T00:21:09.566Z,9.65
2022-11-24T00:23:37.788Z,6.43
2022-11-24T00:26:07.636Z,8.18
2022-11-24T00:28:35.482Z,3.28
2022-11-24T00:31:03.652Z,2.88
2022-11-24T00:33:33.168Z,4.22
2022-11-24T00:36:01.464Z,4.90
2022-11-24T00:38:29.014Z,9.13
2022-11-24T00:40:56.554Z,7.13
2022-11-24T00:43:24.071Z,5.85
2022-11-24T00:45:51.691Z,5.38
2022-11-24T00:48:19.238Z,7.38
2022-11-24T00:50:56.741Z,6.40
2022-11-24T00:53:24.269Z,8.27
2022-11-24T00:55:51.792Z,8.05
2022-11-24T00:58:19.815Z,5.18
2022-11-24T01:00:47.386Z,5.47
2022-11-24T01:03:15.758Z,4.60
2022-11-24T01:05:43.628Z,5.25
2022-11-24T01:08:12.889Z,8.20
2022-11-24T01:10:40.416Z,6.38
2022-11-24T01:13:07.963Z,7.40
2022-11-24T01:15:36.567Z,6.95
2022-11-24T01:18:04.315Z,7.85
2022-11-24T01:20:31.883Z,8.40
2022-11-24T01:22:59.430Z,7.35
2022-11-24T01:25:28.341Z,7.93
2022-11-24T01:27:55.872Z,6.53
2022-11-24T01:30:23.421Z,6.28
2022-11-24T01:32:50.999Z,5.30
2022-11-24T01:35:18.783Z,10.55
2022-11-24T01:37:46.505Z,9.63
2022-11-24T01:40:14.094Z,5.90
2022-11-24T01:42:49.850Z,5.38
2022-11-24T01:45:36.966Z,7.05
2022-11-24T01:48:08.212Z,6.40
2022-11-24T01:50:36.877Z,3.67
2022-11-24T01:53:05.799Z,8.48
2022-11-24T01:55:38.538Z,6.55
2022-11-24T02:00:38.862Z,8.15
2022-11-24T02:03:06.534Z,9.00
2022-11-24T02:05:41.702Z,8.00
2022-11-24T02:08:16.797Z,5.35
2022-11-24T02:10:46.446Z,5.95
2022-11-24T02:13:16.377Z,5.72
2022-11-24T02:15:44.068Z,10.15
2022-11-24T02:18:11.887Z,5.43
2022-11-24T02:20:39.569Z,8.68
2022-11-24T02:23:16.530Z,9.25
2022-11-24T02:25:51.109Z,9.70
2022-11-24T02:28:23.064Z,9.63
2022-11-24T02:30:51.447Z,6.68
2022-11-24T02:33:21.440Z,9.05
2022-11-24T02:35:49.238Z,8.68
2022-11-24T02:38:16.725Z,4.30
2022-11-24T02:40:47.680Z,6.28
2022-11-24T02:43:20.398Z,4.95
2022-11-24T02:48:17.270Z,8.23
2022-11-24T02:50:44.767Z,8.32
2022-11-24T02:53:12.385Z,5.15
2022-11-24T02:55:39.902Z,5.03
2022-11-24T02:58:07.497Z,5.13
2022-11-24T03:00:35.046Z,3.60
2022-11-24T03:03:04.672Z,6.40
2022-11-24T03:05:32.264Z,5.50
2022-11-24T03:07:59.799Z,3.45
2022-11-24T03:10:28.444Z,2.85
2022-11-24T03:12:56.330Z,4.28
2022-11-24T03:15:24.060Z,5.05
2022-11-24T03:17:51.860Z,8.40
2022-11-24T03:20:20.728Z,4.90
2022-11-24T03:22:48.254Z,2.35
2022-11-24T03:25:15.947Z,2.88
2022-11-24T03:27:43.432Z,6.03
2022-11-24T03:30:12.465Z,5.75
2022-11-24T03:32:40.081Z,6.05
2022-11-24T03:35:08.135Z,3.95
2022-11-24T03:37:37.259Z,3.22
2022-11-24T03:40:05.612Z,6.20
2022-11-24T03:42:33.139Z,3.55
2022-11-24T03:45:16.713Z,3.92
2022-11-24T03:47:51.294Z,4.10
2022-11-24T03:50:19.104Z,4.60
2022-11-24T03:52:47.999Z,6.85
2022-11-24T03:55:15.665Z,7.63
2022-11-24T03:57:43.304Z,2.05
2022-11-24T04:00:12.148Z,5.30
2022-11-24T04:02:39.726Z,3.47
2022-11-24T04:05:08.147Z,3.35
2022-11-24T04:07:35.705Z,4.75
2022-11-24T04:10:05.194Z,5.82
2022-11-24T04:12:46.884Z,6.30
2022-11-24T04:15:16.762Z,4.00
2022-11-24T04:17:44.522Z,5.25
2022-11-24T04:20:13.541Z,3.75
2022-11-24T04:22:41.405Z,5.95
2022-11-24T04:25:11.342Z,4.32
2022-11-24T04:27:39.759Z,5.50
2022-11-24T04:30:08.763Z,5.70
2022-11-24T04:32:36.267Z,4.80
2022-11-24T04:35:04.171Z,3.85
2022-11-24T04:37:31.667Z,8.75
2022-11-24T04:39:59.203Z,6.10
2022-11-24T04:42:28.087Z,5.18
2022-11-24T04:44:55.666Z,6.88
2022-11-24T04:47:25.250Z,5.05
2022-11-24T04:49:53.555Z,2.67
2022-11-24T04:52:22.507Z,5.20
2022-11-24T04:54:50.418Z,4.45
2022-11-24T04:57:18.935Z,5.03
2022-11-24T04:59:47.884Z,5.57
2022-11-24T05:02:15.407Z,6.43
2022-11-24T05:04:43.129Z,4.03
2022-11-24T05:07:17.926Z,4.43
2022-11-24T05:10:03.760Z,6.78
2022-11-24T05:12:31.942Z,3.90
2022-11-24T05:15:01.928Z,5.63
2022-11-24T05:17:30.692Z,7.35
2022-11-24T05:19:58.343Z,4.95
2022-11-24T05:22:26.950Z,5.80
2022-11-24T05:24:54.526Z,5.57
2022-11-24T05:27:22.522Z,10.45
2022-11-24T05:29:50.071Z,5.32
2022-11-24T05:32:18.934Z,7.13
2022-11-24T05:34:46.518Z,7.50
2022-11-24T05:37:14.139Z,4.65
2022-11-24T05:39:50.131Z,5.47
2022-11-24T05:42:45.135Z,9.25
2022-11-24T05:45:19.709Z,7.70
2022-11-24T05:47:52.144Z,6.13
2022-11-24T05:50:22.860Z,6.07
2022-11-24T05:52:50.973Z,6.60
2022-11-24T05:55:20.116Z,6.80
2022-11-24T05:57:48.131Z,5.60
2022-11-24T06:00:18.077Z,4.30
2022-11-24T06:02:46.165Z,7.18
2022-11-24T06:05:15.725Z,9.68
2022-11-24T06:07:44.048Z,8.10
2022-11-24T06:10:11.757Z,5.88
2022-11-24T06:12:39.388Z,6.25
2022-11-24T06:15:08.190Z,9.82
2022-11-24T06:17:35.967Z,8.65
2022-11-24T06:20:03.874Z,11.70
2022-11-24T06:22:33.758Z,8.93
2022-11-24T06:25:01.535Z,5.28
2022-11-24T06:27:29.490Z,4.63
2022-11-24T06:29:57.215Z,3.75
2022-11-24T06:32:25.371Z,7.82
2022-11-24T06:34:53.132Z,7.72
2022-11-24T06:37:20.861Z,5.57
2022-11-24T06:39:50.030Z,6.20
2022-11-24T06:42:19.120Z,6.45
2022-11-24T06:44:47.554Z,5.28
2022-11-24T06:47:15.260Z,7.95
2022-11-24T06:49:43.071Z,9.90
2022-11-24T06:52:10.775Z,8.43
2022-11-24T06:54:38.467Z,4.82
2022-11-24T06:57:07.546Z,10.90
2022-11-24T06:59:35.175Z,5.40
2022-11-24T07:02:02.735Z,7.88
2022-11-24T07:04:30.457Z,4.97
2022-11-24T07:06:58.301Z,3.97
2022-11-24T07:09:25.997Z,7.80
2022-11-24T07:11:55.990Z,4.88
2022-11-24T07:14:25.169Z,4.43
2022-11-24T07:16:52.935Z,7.25
2022-11-24T07:19:24.903Z,3.85
2022-11-24T07:21:52.822Z,8.05
2022-11-24T07:24:20.580Z,7.38
2022-11-24T07:26:48.411Z,3.90
2022-11-24T07:29:16.084Z,4.97
2022-11-24T07:31:46.012Z,1.80
2022-11-24T07:34:14.687Z,4.80
2022-11-24T07:36:42.847Z,3.75
2022-11-24T07:39:10.856Z,4.60
2022-11-24T07:41:38.614Z,9.65
2022-11-24T07:44:06.734Z,4.88
2022-11-24T07:46:34.480Z,7.28
2022-11-24T07:49:03.760Z,4.88
2022-11-24T07:51:31.387Z,5.57
2022-11-24T07:53:59.125Z,5.72
2022-11-24T07:56:26.941Z,6.55
2022-11-24T07:58:54.650Z,6.57
2022-11-24T08:01:22.514Z,5.53
2022-11-24T08:03:51.599Z,6.68
2022-11-24T08:06:28.580Z,4.30
2022-11-24T08:09:00.764Z,6.30
2022-11-24T08:11:31.449Z,4.60
2022-11-24T08:13:59.321Z,5.35
2022-11-24T08:16:27.084Z,5.93
2022-11-24T08:18:56.603Z,7.80
2022-11-24T08:21:26.370Z,4.97
2022-11-24T08:23:56.023Z,6.07
2022-11-24T08:26:24.720Z,4.22
2022-11-24T08:28:55.712Z,8.52
2022-11-24T08:31:24.879Z,4.75
2022-11-24T08:33:52.708Z,6.13
2022-11-24T08:36:20.692Z,7.65
2022-11-24T08:38:50.112Z,5.88
2022-11-24T08:41:18.316Z,6.22
2022-11-24T08:43:46.035Z,8.65
2022-11-24T08:46:17.199Z,4.47
2022-11-24T08:48:45.595Z,5.03
2022-11-24T08:51:15.357Z,6.57
2022-11-24T08:53:43.806Z,2.55
2022-11-24T08:56:14.308Z,3.75
2022-11-24T08:58:42.733Z,3.88
2022-11-24T09:01:12.366Z,5.03
2022-11-24T09:03:44.969Z,4.38
2022-11-24T09:06:18.283Z,4.95
2022-11-24T09:08:46.229Z,4.47
2022-11-24T09:11:17.253Z,3.00
2022-11-24T09:13:45.739Z,8.13
2022-11-24T09:16:15.126Z,2.70
2022-11-24T09:18:43.326Z,4.25
2022-11-24T09:21:12.014Z,3.70
2022-11-24T09:23:40.631Z,2.42
2022-11-24T09:26:09.789Z,1.63
2022-11-24T09:28:38.968Z,5.50
2022-11-24T09:31:08.761Z,3.15
2022-11-24T09:33:37.192Z,2.95
2022-11-24T09:36:06.085Z,6.55
2022-11-24T09:38:34.019Z,4.45
2022-11-24T09:41:22.213Z,4.93
2022-11-24T09:44:00.375Z,3.40
2022-11-24T09:46:33.981Z,5.72
2022-11-24T09:49:03.737Z,2.72
2022-11-24T09:51:33.142Z,4.97
2022-11-24T09:54:06.623Z,6.65
2022-11-24T09:56:36.171Z,6.05
2022-11-24T09:59:11.826Z,6.18
2022-11-24T10:01:43.209Z,7.25
2022-11-24T10:04:16.003Z,3.80
2022-11-24T10:09:25.720Z,6.95
2022-11-24T10:12:04.155Z,8.00
2022-11-24T10:14:59.728Z,5.88
2022-11-24T10:17:42.227Z,5.45
2022-11-24T10:20:18.579Z,4.57
2022-11-24T10:22:58.340Z,5.95
2022-11-24T10:25:27.214Z,3.83
2022-11-24T10:27:59.945Z,3.17
2022-11-24T10:32:59.413Z,6.03
2022-11-24T10:35:31.646Z,4.70
2022-11-24T10:38:08.352Z,6.70
2022-11-24T10:40:56.458Z,5.35
2022-11-24T10:43:27.493Z,3.20
2022-11-24T10:46:01.658Z,4.80
2022-11-24T10:48:38.008Z,3.05
2022-11-24T10:51:33.512Z,4.68
2022-11-24T10:54:06.719Z,8.18
2022-11-24T10:56:40.191Z,2.50
2022-11-24T10:59:30.147Z,4.78
2022-11-24T11:01:59.877Z,4.88
2022-11-24T11:04:29.975Z,2.75
2022-11-24T11:07:17.218Z,3.33
2022-11-24T11:09:44.778Z,3.88
2022-11-24T11:12:42.689Z,3.55
2022-11-24T11:15:29.663Z,2.95
2022-11-24T11:18:00.338Z,1.60
2022-11-24T11:20:31.148Z,5.43
2022-11-24T11:23:01.344Z,1.63
2022-11-24T11:25:33.651Z,6.57
2022-11-24T11:28:23.975Z,2.33
2022-11-24T11:34:03.716Z,3.15
2022-11-24T11:36:34.053Z,3.05
2022-11-24T11:39:01.741Z,4.88
2022-11-24T11:41:33.788Z,3.65
2022-11-24T11:44:12.893Z,2.17
2022-11-24T11:46:40.481Z,2.72
2022-11-24T11:49:12.441Z,2.90
2022-11-24T11:51:53.319Z,2.22
2022-11-24T11:54:31.385Z,3.25
2022-11-24T11:57:08.957Z,2.00
2022-11-24T11:59:51.828Z,2.13
2022-11-24T12:05:30.934Z,1.05
2022-11-24T12:08:17.543Z,2.85
2022-11-24T12:10:54.433Z,1.77
2022-11-24T12:13:45.315Z,1.77
2022-11-24T12:16:27.594Z,1.75
2022-11-24T12:19:12.502Z,1.52
2022-11-24T12:21:48.939Z,2.67
2022-11-24T12:24:23.133Z,2.78
2022-11-24T12:26:55.971Z,5.10
2022-11-24T12:30:04.999Z,1.98
2022-11-24T12:33:10.726Z,3.25
2022-11-24T12:35:43.366Z,3.03
2022-11-24T12:38:33.317Z,2.50
2022-11-24T12:41:40.284Z,2.88
2022-11-24T12:44:16.700Z,1.88
2022-11-24T12:46:55.736Z,3.15
2022-11-24T12:49:31.633Z,3.38
2022-11-24T12:52:03.660Z,5.10
2022-11-24T12:54:39.690Z,1.83
2022-11-24T12:57:13.292Z,2.92
2022-11-24T12:59:45.336Z,1.38
2022-11-24T13:02:27.722Z,3.15
2022-11-24T13:05:02.490Z,3.92
2022-11-24T13:07:44.816Z,2.22
2022-11-24T13:10:54.892Z,4.13
2022-11-24T13:13:19.560Z,4.68
2022-11-24T13:16:35.896Z,2.75
2022-11-24T13:19:14.182Z,2.30
2022-11-24T13:22:01.709Z,6.65
2022-11-24T13:24:31.666Z,3.53
2022-11-24T13:27:29.262Z,1.70
2022-11-24T13:29:56.845Z,2.50
2022-11-24T13:33:01.105Z,1.52
2022-11-24T13:35:29.237Z,4.95
2022-11-24T13:37:57.613Z,1.95
2022-11-24T13:40:54.379Z,9.95
2022-11-24T13:43:30.076Z,4.60
2022-11-24T13:45:57.650Z,4.93
2022-11-24T13:48:53.335Z,2.58
2022-11-24T13:51:25.232Z,3.67
2022-11-24T13:53:55.994Z,8.85
2022-11-24T13:56:27.297Z,5.63
2022-11-24T13:58:58.854Z,2.78
2022-11-24T14:01:28.361Z,2.65
2022-11-24T14:04:30.443Z,3.58
2022-11-24T14:07:07.419Z,3.58
2022-11-24T14:09:41.341Z,4.05
2022-11-24T14:14:42.999Z,4.43
2022-11-24T14:17:19.828Z,1.40
2022-11-24T14:19:49.328Z,4.15
2022-11-24T14:22:18.982Z,1.77
2022-11-24T14:24:52.094Z,2.92
2022-11-24T14:27:24.490Z,2.30
2022-11-24T14:30:01.749Z,4.05
2022-11-24T14:32:29.919Z,4.25
2022-11-24T14:34:57.582Z,5.70
2022-11-24T14:37:25.327Z,3.80
2022-11-24T14:39:54.090Z,3.10
2022-11-24T14:42:23.597Z,2.33
2022-11-24T14:44:55.503Z,5.75
2022-11-24T14:47:31.265Z,3.15
2022-11-24T14:50:09.681Z,5.72
2022-11-24T14:52:43.406Z,2.60
2022-11-24T14:55:25.279Z,4.93
2022-11-24T14:57:52.786Z,2.95
2022-11-24T15:00:26.949Z,5.07
2022-11-24T15:03:08.043Z,7.50
2022-11-24T15:05:51.482Z,3.22
2022-11-24T15:08:19.159Z,4.55
2022-11-24T15:10:47.499Z,4.90
2022-11-24T15:13:18.469Z,3.67
2022-11-24T15:15:50.401Z,4.53
2022-11-24T15:18:27.269Z,5.55
2022-11-24T15:20:55.767Z,3.67
2022-11-24T15:23:25.769Z,2.70
2022-11-24T15:25:54.258Z,4.63
2022-11-24T15:28:25.625Z,4.03
2022-11-24T15:30:55.076Z,3.22
2022-11-24T15:33:24.521Z,4.47
2022-11-24T15:35:52.710Z,6.05
2022-11-24T15:38:20.828Z,3.13
2022-11-24T15:40:49.896Z,5.72
2022-11-24T15:43:29.788Z,7.40
2022-11-24T15:45:58.003Z,7.22
2022-11-24T15:48:27.167Z,5.65
2022-11-24T15:50:55.281Z,7.88
2022-11-24T15:53:25.909Z,6.32
2022-11-24T15:55:53.874Z,9.70
2022-11-24T15:58:21.345Z,7.95
2022-11-24T16:00:48.966Z,5.55
2022-11-24T16:03:45.791Z,5.95
2022-11-24T16:06:05.675Z,6.47
2022-11-24T16:08:33.183Z,6.88
2022-11-24T16:11:02.810Z,8.52
2022-11-24T16:13:37.040Z,4.40
2022-11-24T16:16:06.742Z,7.75
2022-11-24T16:18:39.381Z,7.43
2022-11-24T16:21:09.824Z,5.15
2022-11-24T16:23:40.668Z,6.57
2022-11-24T16:26:09.168Z,8.73
2022-11-24T16:28:38.347Z,6.00
2022-11-24T16:31:06.681Z,6.80
2022-11-24T16:33:35.105Z,10.77
2022-11-24T16:36:03.688Z,8.50
2022-11-24T16:38:33.777Z,11.38
2022-11-24T16:41:05.185Z,13.23
2022-11-24T16:43:33.483Z,11.55
2022-11-24T16:46:22.203Z,10.65
2022-11-24T16:48:52.158Z,7.75
2022-11-24T16:51:21.764Z,10.25
2022-11-24T16:53:58.602Z,8.65
2022-11-24T16:56:27.620Z,8.88
2022-11-24T16:58:56.375Z,10.07
2022-11-24T17:01:26.177Z,12.98
2022-11-24T17:03:56.524Z,7.72
2022-11-24T17:06:25.661Z,8.38
2022-11-24T17:08:59.975Z,7.45
2022-11-24T17:11:29.808Z,12.30
2022-11-24T17:13:59.392Z,11.02
2022-11-24T17:16:28.602Z,8.68
2022-11-24T17:18:58.856Z,12.48
2022-11-24T17:21:32.346Z,8.30
2022-11-24T17:24:07.161Z,11.38
2022-11-24T17:26:35.688Z,11.90
2022-11-24T17:29:09.332Z,8.25
2022-11-24T17:31:41.369Z,8.38
2022-11-24T17:34:12.334Z,11.88
2022-11-24T17:36:42.140Z,13.75
2022-11-24T17:39:11.457Z,12.73
2022-11-24T17:41:39.473Z,10.10
2022-11-24T17:44:08.508Z,11.98
2022-11-24T17:46:37.101Z,10.23
2022-11-24T17:49:06.550Z,8.85
2022-11-24T17:51:34.055Z,9.57
2022-11-24T17:54:13.599Z,9.23
2022-11-24T17:56:50.826Z,10.25
2022-11-24T17:59:18.826Z,11.95
2022-11-24T18:01:46.454Z,7.50
2022-11-24T18:04:14.101Z,8.10
2022-11-24T18:06:41.655Z,9.82
2022-11-24T18:09:09.248Z,8.93
2022-11-24T18:11:37.085Z,8.90
2022-11-24T18:14:06.601Z,10.55
2022-11-24T18:16:35.378Z,10.00
2022-11-24T18:19:08.848Z,9.80
2022-11-24T18:21:37.554Z,8.25
2022-11-24T18:24:05.295Z,7.53
2022-11-24T18:26:33.095Z,10.80
2022-11-24T18:29:00.737Z,12.00
2022-11-24T18:31:31.373Z,13.45
2022-11-24T18:34:00.182Z,10.63
2022-11-24T18:36:30.526Z,8.82
2022-11-24T18:38:58.446Z,10.98
2022-11-24T18:41:26.113Z,10.05
2022-11-24T18:43:53.958Z,8.18
2022-11-24T18:46:21.670Z,7.78
2022-11-24T18:48:51.957Z,10.48
2022-11-24T18:51:19.776Z,10.90
2022-11-24T18:53:51.607Z,7.93
2022-11-24T18:56:19.168Z,8.60
2022-11-24T18:58:46.967Z,10.38
2022-11-24T19:01:16.227Z,10.25
2022-11-24T19:03:48.670Z,10.70
2022-11-24T19:06:19.854Z,8.80
2022-11-24T19:08:48.291Z,6.53
2022-11-24T19:11:20.408Z,6.82
2022-11-24T19:13:49.042Z,7.72
2022-11-24T19:16:17.451Z,9.05
2022-11-24T19:18:50.269Z,4.85
2022-11-24T19:21:22.796Z,9.13
2022-11-24T19:23:50.486Z,6.18
2022-11-24T19:26:18.510Z,7.38
2022-11-24T19:28:46.228Z,6.70
2022-11-24T19:31:16.386Z,5.00
2022-11-24T19:33:44.391Z,6.18
2022-11-24T19:36:13.920Z,8.50
2022-11-24T19:38:43.427Z,9.70
2022-11-24T19:41:12.906Z,8.80
2022-11-24T19:43:41.713Z,7.82
2022-11-24T19:46:12.179Z,9.98
2022-11-24T19:48:41.470Z,7.38
2022-11-24T19:51:13.130Z,10.73
2022-11-24T19:53:41.191Z,10.73
2022-11-24T19:56:13.274Z,9.07
2022-11-24T19:58:41.759Z,5.47
2022-11-24T20:01:11.276Z,6.93
2022-11-24T20:03:40.082Z,13.02
2022-11-24T20:06:09.554Z,6.15
2022-11-24T20:08:38.419Z,7.93
2022-11-24T20:11:07.678Z,9.13
2022-11-24T20:13:37.835Z,6.30
2022-11-24T20:16:05.955Z,7.00
2022-11-24T20:18:38.952Z,13.50
2022-11-24T20:21:11.855Z,6.45
2022-11-24T20:23:39.815Z,8.18
2022-11-24T20:26:09.183Z,8.60
2022-11-24T20:28:38.272Z,8.75
2022-11-24T20:31:07.794Z,8.07
2022-11-24T20:33:36.322Z,11.25
2022-11-24T20:36:07.031Z,8.45
2022-11-24T20:38:35.477Z,9.05
2022-11-24T20:41:08.940Z,10.27
2022-11-24T20:43:38.377Z,7.70
2022-11-24T20:46:07.634Z,6.95
2022-11-24T20:48:36.025Z,8.65
2022-11-24T20:51:04.783Z,9.00
2022-11-24T20:53:32.280Z,9.18
2022-11-24T20:56:06.025Z,6.88
2022-11-24T20:58:34.985Z,6.97
2022-11-24T21:01:08.806Z,6.03
2022-11-24T21:03:41.394Z,13.27
2022-11-24T21:06:11.586Z,9.93
2022-11-24T21:08:40.081Z,9.60
2022-11-24T21:11:08.794Z,10.02
2022-11-24T21:13:37.349Z,8.35
2022-11-24T21:16:15.206Z,6.80
2022-11-24T21:18:43.505Z,5.50
2022-11-24T21:21:11.515Z,9.25
2022-11-24T21:23:39.121Z,10.98
2022-11-24T21:26:13.063Z,10.02
2022-11-24T21:28:43.176Z,7.13
2022-11-24T21:31:14.849Z,8.48
2022-11-24T21:33:44.769Z,6.22
2022-11-24T21:36:14.496Z,10.48
2022-11-24T21:38:42.684Z,8.75
2022-11-24T21:41:11.755Z,8.52
2022-11-24T21:43:39.361Z,13.10
2022-11-24T21:46:09.473Z,8.90
2022-11-24T21:48:45.377Z,10.48
2022-11-24T21:51:15.581Z,8.05
2022-11-24T21:53:44.397Z,9.13
2022-11-24T21:56:14.362Z,8.55
2022-11-24T21:58:45.549Z,9.57
2022-11-24T22:01:13.357Z,10.98
2022-11-24T22:03:42.328Z,7.05
2022-11-24T22:06:10.208Z,9.40
2022-11-24T22:08:37.921Z,8.57
2022-11-24T22:11:07.485Z,8.68
2022-11-24T22:13:35.381Z,6.15
2022-11-24T22:16:05.298Z,6.65
2022-11-24T22:18:34.239Z,7.53
2022-11-24T22:21:03.871Z,8.32
2022-11-24T22:23:32.065Z,9.77
2022-11-24T22:26:04.148Z,9.77
2022-11-24T22:28:33.060Z,10.63
2022-11-24T22:31:04.974Z,9.52
2022-11-24T22:33:32.868Z,7.10
2022-11-24T22:36:01.451Z,8.25
2022-11-24T22:38:31.583Z,5.93
2022-11-24T22:41:02.890Z,9.45
2022-11-24T22:43:32.561Z,6.85
2022-11-24T22:46:04.831Z,5.68
2022-11-24T22:48:32.598Z,4.53
2022-11-24T22:51:04.804Z,5.30
2022-11-24T22:53:34.006Z,7.97
2022-11-24T22:56:02.620Z,6.28
2022-11-24T22:58:30.555Z,7.60
2022-11-24T23:00:58.114Z,4.82
2022-11-24T23:03:25.752Z,5.78
2022-11-24T23:05:53.368Z,3.45
2022-11-24T23:08:20.905Z,9.18
2022-11-24T23:10:49.767Z,7.13
2022-11-24T23:13:17.292Z,13.48
2022-11-24T23:15:44.792Z,5.85
2022-11-24T23:18:12.516Z,5.20
2022-11-24T23:20:40.036Z,7.35
2022-11-24T23:23:07.568Z,6.97
2022-11-24T23:25:35.437Z,4.82
2022-11-24T23:28:04.363Z,8.48
2022-11-24T23:30:31.882Z,5.60
2022-11-24T23:32:59.427Z,9.50
2022-11-24T23:35:26.995Z,5.45
2022-11-24T23:38:08.331Z,6.63
2022-11-24T23:40:35.860Z,9.18
2022-11-24T23:43:04.743Z,10.00
2022-11-24T23:45:33.162Z,7.20
2022-11-24T23:48:01.699Z,7.97
2022-11-24T23:50:29.990Z,8.60
2022-11-24T23:52:57.516Z,8.05
2022-11-24T23:55:25.108Z,7.13
2022-11-24T23:57:52.670Z,6.72
